sensor_id;sensor_type;location;lat;lon;timestamp;P1;durP1;ratioP1;P2;durP2;ratioP2
27145;SDS011;17980;51.744;7.190;2023-08-21T00:01:58;6.13;;;0.80;;
27145;SDS011;17980;51.744;7.190;2023-08-21T00:04:35;4.30;;;0.70;;
27145;SDS011;17980;51.744;7.190;2023-08-21T00:07:03;3.00;;;0.60;;
27145;SDS011;17980;51.744;7.190;2023-08-21T00:09:32;4.07;;;1.00;;
27145;SDS011;17980;51.744;7.190;2023-08-21T00:11:59;3.17;;;1.00;;
27145;SDS011;17980;51.744;7.190;2023-08-21T00:14:36;4.07;;;0.80;;
27145;SDS011;17980;51.744;7.190;2023-08-21T00:17:03;4.00;;;0.70;;
27145;SDS011;17980;51.744;7.190;2023-08-21T00:19:32;4.33;;;0.90;;
27145;SDS011;17980;51.744;7.190;2023-08-21T00:21:59;3.70;;;1.00;;
27145;SDS011;17980;51.744;7.190;2023-08-21T00:24:36;6.60;;;0.97;;
27145;SDS011;17980;51.744;7.190;2023-08-21T00:27:03;2.60;;;0.63;;
27145;SDS011;17980;51.744;7.190;2023-08-21T00:29:31;2.50;;;0.67;;
27145;SDS011;17980;51.744;7.190;2023-08-21T00:31:58;2.87;;;0.90;;
27145;SDS011;17980;51.744;7.190;2023-08-21T00:34:35;3.83;;;0.80;;
27145;SDS011;17980;51.744;7.190;2023-08-21T00:37:02;2.93;;;0.80;;
27145;SDS011;17980;51.744;7.190;2023-08-21T00:39:30;2.77;;;0.70;;
27145;SDS011;17980;51.744;7.190;2023-08-21T00:41:57;2.20;;;0.80;;
27145;SDS011;17980;51.744;7.190;2023-08-21T00:44:34;3.43;;;0.70;;
27145;SDS011;17980;51.744;7.190;2023-08-21T00:47:01;3.10;;;0.70;;
27145;SDS011;17980;51.744;7.190;2023-08-21T00:49:29;4.57;;;0.77;;
27145;SDS011;17980;51.744;7.190;2023-08-21T00:51:56;2.77;;;0.70;;
27145;SDS011;17980;51.744;7.190;2023-08-21T00:54:33;2.80;;;0.70;;
27145;SDS011;17980;51.744;7.190;2023-08-21T00:57:01;6.67;;;0.80;;
27145;SDS011;17980;51.744;7.190;2023-08-21T00:59:29;3.10;;;0.80;;
27145;SDS011;17980;51.744;7.190;2023-08-21T01:01:57;5.13;;;1.07;;
27145;SDS011;17980;51.744;7.190;2023-08-21T01:04:33;2.90;;;0.83;;
27145;SDS011;17980;51.744;7.190;2023-08-21T01:07:01;3.67;;;0.70;;
27145;SDS011;17980;51.744;7.190;2023-08-21T01:09:31;3.87;;;0.70;;
27145;SDS011;17980;51.744;7.190;2023-08-21T01:12:03;4.87;;;0.93;;
27145;SDS011;17980;51.744;7.190;2023-08-21T01:14:43;4.40;;;0.97;;
27145;SDS011;17980;51.744;7.190;2023-08-21T01:17:14;2.83;;;0.97;;
27145;SDS011;17980;51.744;7.190;2023-08-21T01:19:46;1.30;;;0.70;;
27145;SDS011;17980;51.744;7.190;2023-08-21T01:22:14;3.80;;;1.10;;
27145;SDS011;17980;51.744;7.190;2023-08-21T01:24:51;2.37;;;0.73;;
27145;SDS011;17980;51.744;7.190;2023-08-21T01:27:18;3.53;;;0.83;;
27145;SDS011;17980;51.744;7.190;2023-08-21T01:29:47;5.23;;;1.10;;
27145;SDS011;17980;51.744;7.190;2023-08-21T01:32:16;4.30;;;0.90;;
27145;SDS011;17980;51.744;7.190;2023-08-21T01:34:54;3.67;;;1.00;;
27145;SDS011;17980;51.744;7.190;2023-08-21T01:37:22;2.03;;;0.70;;
27145;SDS011;17980;51.744;7.190;2023-08-21T01:39:50;3.47;;;1.00;;
27145;SDS011;17980;51.744;7.190;2023-08-21T01:42:18;3.03;;;0.77;;
27145;SDS011;17980;51.744;7.190;2023-08-21T01:44:55;3.07;;;0.87;;
27145;SDS011;17980;51.744;7.190;2023-08-21T01:47:22;4.63;;;0.70;;
27145;SDS011;17980;51.744;7.190;2023-08-21T01:49:49;2.97;;;0.63;;
27145;SDS011;17980;51.744;7.190;2023-08-21T01:52:18;1.97;;;0.70;;
27145;SDS011;17980;51.744;7.190;2023-08-21T01:54:54;3.33;;;0.80;;
27145;SDS011;17980;51.744;7.190;2023-08-21T01:57:22;3.17;;;0.80;;
27145;SDS011;17980;51.744;7.190;2023-08-21T01:59:49;1.90;;;1.00;;
27145;SDS011;17980;51.744;7.190;2023-08-21T02:02:16;2.53;;;0.87;;
27145;SDS011;17980;51.744;7.190;2023-08-21T02:04:53;2.57;;;0.70;;
27145;SDS011;17980;51.744;7.190;2023-08-21T02:07:20;3.33;;;0.80;;
27145;SDS011;17980;51.744;7.190;2023-08-21T02:09:48;1.63;;;0.60;;
27145;SDS011;17980;51.744;7.190;2023-08-21T02:12:15;5.03;;;1.13;;
27145;SDS011;17980;51.744;7.190;2023-08-21T02:14:52;4.47;;;1.00;;
27145;SDS011;17980;51.744;7.190;2023-08-21T02:17:19;9.33;;;0.80;;
27145;SDS011;17980;51.744;7.190;2023-08-21T02:19:47;3.97;;;0.60;;
27145;SDS011;17980;51.744;7.190;2023-08-21T02:22:14;3.77;;;0.90;;
27145;SDS011;17980;51.744;7.190;2023-08-21T02:24:52;4.07;;;0.87;;
27145;SDS011;17980;51.744;7.190;2023-08-21T02:27:19;2.90;;;1.03;;
27145;SDS011;17980;51.744;7.190;2023-08-21T02:29:46;1.97;;;0.77;;
27145;SDS011;17980;51.744;7.190;2023-08-21T02:34:50;2.97;;;0.70;;
27145;SDS011;17980;51.744;7.190;2023-08-21T02:37:17;2.57;;;0.70;;
27145;SDS011;17980;51.744;7.190;2023-08-21T02:39:44;2.93;;;0.80;;
27145;SDS011;17980;51.744;7.190;2023-08-21T02:42:11;3.30;;;0.80;;
27145;SDS011;17980;51.744;7.190;2023-08-21T02:44:50;2.77;;;0.80;;
27145;SDS011;17980;51.744;7.190;2023-08-21T02:47:18;3.40;;;0.90;;
27145;SDS011;17980;51.744;7.190;2023-08-21T02:49:45;3.03;;;0.70;;
27145;SDS011;17980;51.744;7.190;2023-08-21T02:52:12;4.93;;;1.00;;
27145;SDS011;17980;51.744;7.190;2023-08-21T02:54:50;4.33;;;0.87;;
27145;SDS011;17980;51.744;7.190;2023-08-21T02:57:17;4.20;;;0.83;;
27145;SDS011;17980;51.744;7.190;2023-08-21T02:59:45;4.10;;;1.00;;
27145;SDS011;17980;51.744;7.190;2023-08-21T03:02:12;3.17;;;0.77;;
27145;SDS011;17980;51.744;7.190;2023-08-21T03:04:49;6.33;;;0.87;;
27145;SDS011;17980;51.744;7.190;2023-08-21T03:07:17;2.17;;;0.90;;
27145;SDS011;17980;51.744;7.190;2023-08-21T03:14:59;6.07;;;0.83;;
27145;SDS011;17980;51.744;7.190;2023-08-21T03:17:26;3.40;;;0.80;;
27145;SDS011;17980;51.744;7.190;2023-08-21T03:20:03;1.97;;;0.90;;
27145;SDS011;17980;51.744;7.190;2023-08-21T03:25:08;2.37;;;0.87;;
27145;SDS011;17980;51.744;7.190;2023-08-21T03:27:46;5.63;;;1.03;;
27145;SDS011;17980;51.744;7.190;2023-08-21T03:30:16;3.07;;;1.00;;
27145;SDS011;17980;51.744;7.190;2023-08-21T03:32:43;3.80;;;0.70;;
27145;SDS011;17980;51.744;7.190;2023-08-21T03:35:11;4.07;;;0.87;;
27145;SDS011;17980;51.744;7.190;2023-08-21T03:37:38;5.93;;;0.90;;
27145;SDS011;17980;51.744;7.190;2023-08-21T03:40:15;3.80;;;0.97;;
27145;SDS011;17980;51.744;7.190;2023-08-21T03:42:43;6.37;;;1.20;;
27145;SDS011;17980;51.744;7.190;2023-08-21T03:45:10;2.50;;;1.00;;
27145;SDS011;17980;51.744;7.190;2023-08-21T03:47:37;4.57;;;1.00;;
27145;SDS011;17980;51.744;7.190;2023-08-21T03:50:15;3.53;;;1.10;;
27145;SDS011;17980;51.744;7.190;2023-08-21T03:52:42;7.87;;;1.00;;
27145;SDS011;17980;51.744;7.190;2023-08-21T03:57:45;3.50;;;0.97;;
27145;SDS011;17980;51.744;7.190;2023-08-21T04:00:13;3.23;;;1.10;;
27145;SDS011;17980;51.744;7.190;2023-08-21T04:02:50;4.93;;;1.07;;
27145;SDS011;17980;51.744;7.190;2023-08-21T04:05:18;8.13;;;1.30;;
27145;SDS011;17980;51.744;7.190;2023-08-21T04:07:45;5.53;;;1.10;;
27145;SDS011;17980;51.744;7.190;2023-08-21T04:10:22;5.23;;;1.07;;
27145;SDS011;17980;51.744;7.190;2023-08-21T04:12:49;7.40;;;1.27;;
27145;SDS011;17980;51.744;7.190;2023-08-21T04:15:17;7.63;;;1.20;;
27145;SDS011;17980;51.744;7.190;2023-08-21T04:17:44;5.10;;;1.37;;
27145;SDS011;17980;51.744;7.190;2023-08-21T04:20:21;15.63;;;14.13;;
27145;SDS011;17980;51.744;7.190;2023-08-21T04:22:49;17.83;;;16.13;;
27145;SDS011;17980;51.744;7.190;2023-08-21T04:25:16;13.67;;;7.10;;
27145;SDS011;17980;51.744;7.190;2023-08-21T04:27:44;6.53;;;1.63;;
27145;SDS011;17980;51.744;7.190;2023-08-21T04:30:21;4.40;;;1.23;;
27145;SDS011;17980;51.744;7.190;2023-08-21T04:32:48;7.63;;;1.40;;
27145;SDS011;17980;51.744;7.190;2023-08-21T04:37:52;4.97;;;1.10;;
27145;SDS011;17980;51.744;7.190;2023-08-21T04:40:19;4.73;;;1.47;;
27145;SDS011;17980;51.744;7.190;2023-08-21T04:42:47;2.23;;;0.90;;
27145;SDS011;17980;51.744;7.190;2023-08-21T04:47:51;4.83;;;1.37;;
27145;SDS011;17980;51.744;7.190;2023-08-21T04:50:18;7.77;;;1.20;;
27145;SDS011;17980;51.744;7.190;2023-08-21T04:52:46;3.80;;;1.20;;
27145;SDS011;17980;51.744;7.190;2023-08-21T04:55:14;4.90;;;0.80;;
27145;SDS011;17980;51.744;7.190;2023-08-21T04:57:42;5.73;;;1.03;;
27145;SDS011;17980;51.744;7.190;2023-08-21T05:00:19;8.63;;;1.20;;
27145;SDS011;17980;51.744;7.190;2023-08-21T05:02:46;4.70;;;1.10;;
27145;SDS011;17980;51.744;7.190;2023-08-21T05:05:14;19.60;;;12.13;;
27145;SDS011;17980;51.744;7.190;2023-08-21T05:07:42;26.67;;;17.00;;
27145;SDS011;17980;51.744;7.190;2023-08-21T05:10:19;29.67;;;20.03;;
27145;SDS011;17980;51.744;7.190;2023-08-21T05:12:46;22.53;;;13.10;;
27145;SDS011;17980;51.744;7.190;2023-08-21T05:15:14;26.33;;;15.20;;
27145;SDS011;17980;51.744;7.190;2023-08-21T05:17:42;13.00;;;5.60;;
27145;SDS011;17980;51.744;7.190;2023-08-21T05:20:19;10.13;;;4.30;;
27145;SDS011;17980;51.744;7.190;2023-08-21T05:22:46;9.33;;;2.90;;
27145;SDS011;17980;51.744;7.190;2023-08-21T05:27:50;6.43;;;1.90;;
27145;SDS011;17980;51.744;7.190;2023-08-21T05:30:17;6.03;;;1.07;;
27145;SDS011;17980;51.744;7.190;2023-08-21T05:32:54;3.50;;;1.23;;
27145;SDS011;17980;51.744;7.190;2023-08-21T05:35:22;6.83;;;1.40;;
27145;SDS011;17980;51.744;7.190;2023-08-21T05:37:58;5.27;;;1.00;;
27145;SDS011;17980;51.744;7.190;2023-08-21T05:40:26;3.90;;;1.00;;
27145;SDS011;17980;51.744;7.190;2023-08-21T05:42:53;4.47;;;1.07;;
27145;SDS011;17980;51.744;7.190;2023-08-21T05:45:21;8.67;;;1.27;;
27145;SDS011;17980;51.744;7.190;2023-08-21T05:47:58;5.40;;;1.10;;
27145;SDS011;17980;51.744;7.190;2023-08-21T05:50:25;4.87;;;1.37;;
27145;SDS011;17980;51.744;7.190;2023-08-21T05:53:02;6.20;;;1.10;;
27145;SDS011;17980;51.744;7.190;2023-08-21T05:55:30;7.63;;;1.23;;
27145;SDS011;17980;51.744;7.190;2023-08-21T05:58:13;4.53;;;1.07;;
27145;SDS011;17980;51.744;7.190;2023-08-21T06:00:41;3.07;;;1.00;;
27145;SDS011;17980;51.744;7.190;2023-08-21T06:03:10;2.60;;;1.03;;
27145;SDS011;17980;51.744;7.190;2023-08-21T06:05:37;5.73;;;1.10;;
27145;SDS011;17980;51.744;7.190;2023-08-21T06:08:14;2.50;;;0.90;;
27145;SDS011;17980;51.744;7.190;2023-08-21T06:10:41;4.17;;;0.90;;
27145;SDS011;17980;51.744;7.190;2023-08-21T06:13:09;6.80;;;2.40;;
27145;SDS011;17980;51.744;7.190;2023-08-21T06:15:36;4.23;;;1.43;;
27145;SDS011;17980;51.744;7.190;2023-08-21T06:18:13;7.80;;;1.10;;
27145;SDS011;17980;51.744;7.190;2023-08-21T06:20:42;7.40;;;1.30;;
27145;SDS011;17980;51.744;7.190;2023-08-21T06:23:10;5.80;;;0.80;;
27145;SDS011;17980;51.744;7.190;2023-08-21T06:25:37;8.30;;;1.20;;
27145;SDS011;17980;51.744;7.190;2023-08-21T06:28:14;8.30;;;1.07;;
27145;SDS011;17980;51.744;7.190;2023-08-21T06:30:42;5.83;;;1.00;;
27145;SDS011;17980;51.744;7.190;2023-08-21T06:33:10;5.27;;;1.10;;
27145;SDS011;17980;51.744;7.190;2023-08-21T06:35:37;2.97;;;0.80;;
27145;SDS011;17980;51.744;7.190;2023-08-21T06:38:14;3.93;;;0.90;;
27145;SDS011;17980;51.744;7.190;2023-08-21T06:40:42;14.03;;;1.07;;
27145;SDS011;17980;51.744;7.190;2023-08-21T06:43:11;3.00;;;0.90;;
27145;SDS011;17980;51.744;7.190;2023-08-21T06:45:38;4.63;;;1.20;;
27145;SDS011;17980;51.744;7.190;2023-08-21T06:48:15;5.27;;;0.80;;
27145;SDS011;17980;51.744;7.190;2023-08-21T06:50:44;5.60;;;1.10;;
27145;SDS011;17980;51.744;7.190;2023-08-21T06:53:11;5.17;;;1.20;;
27145;SDS011;17980;51.744;7.190;2023-08-21T06:55:39;3.73;;;0.90;;
27145;SDS011;17980;51.744;7.190;2023-08-21T06:58:16;9.47;;;1.23;;
27145;SDS011;17980;51.744;7.190;2023-08-21T07:00:43;3.40;;;0.90;;
27145;SDS011;17980;51.744;7.190;2023-08-21T07:03:11;6.30;;;1.27;;
27145;SDS011;17980;51.744;7.190;2023-08-21T07:05:38;4.83;;;0.83;;
27145;SDS011;17980;51.744;7.190;2023-08-21T07:08:21;3.77;;;0.70;;
27145;SDS011;17980;51.744;7.190;2023-08-21T07:10:48;3.97;;;0.90;;
27145;SDS011;17980;51.744;7.190;2023-08-21T07:13:16;4.73;;;1.17;;
27145;SDS011;17980;51.744;7.190;2023-08-21T07:15:43;4.77;;;0.90;;
27145;SDS011;17980;51.744;7.190;2023-08-21T07:18:21;4.60;;;1.10;;
27145;SDS011;17980;51.744;7.190;2023-08-21T07:20:48;6.13;;;0.87;;
27145;SDS011;17980;51.744;7.190;2023-08-21T07:23:19;4.67;;;1.20;;
27145;SDS011;17980;51.744;7.190;2023-08-21T07:25:47;3.87;;;0.90;;
27145;SDS011;17980;51.744;7.190;2023-08-21T07:28:24;3.60;;;0.80;;
27145;SDS011;17980;51.744;7.190;2023-08-21T07:30:54;6.57;;;0.90;;
27145;SDS011;17980;51.744;7.190;2023-08-21T07:33:22;4.87;;;0.90;;
27145;SDS011;17980;51.744;7.190;2023-08-21T07:35:57;4.40;;;0.77;;
27145;SDS011;17980;51.744;7.190;2023-08-21T07:38:40;2.27;;;0.67;;
27145;SDS011;17980;51.744;7.190;2023-08-21T07:41:07;1.20;;;0.63;;
27145;SDS011;17980;51.744;7.190;2023-08-21T07:43:36;3.73;;;0.70;;
27145;SDS011;17980;51.744;7.190;2023-08-21T07:46:04;4.80;;;0.60;;
27145;SDS011;17980;51.744;7.190;2023-08-21T07:48:41;2.70;;;0.67;;
27145;SDS011;17980;51.744;7.190;2023-08-21T07:51:09;3.60;;;0.87;;
27145;SDS011;17980;51.744;7.190;2023-08-21T07:53:36;6.13;;;0.70;;
27145;SDS011;17980;51.744;7.190;2023-08-21T07:56:04;3.67;;;0.50;;
27145;SDS011;17980;51.744;7.190;2023-08-21T07:58:41;5.47;;;0.70;;
27145;SDS011;17980;51.744;7.190;2023-08-21T08:01:09;0.87;;;0.50;;
27145;SDS011;17980;51.744;7.190;2023-08-21T08:03:36;3.63;;;0.60;;
27145;SDS011;17980;51.744;7.190;2023-08-21T08:06:03;3.67;;;0.50;;
27145;SDS011;17980;51.744;7.190;2023-08-21T08:08:40;2.33;;;0.50;;
27145;SDS011;17980;51.744;7.190;2023-08-21T08:11:08;2.03;;;0.50;;
27145;SDS011;17980;51.744;7.190;2023-08-21T08:13:35;2.07;;;0.60;;
27145;SDS011;17980;51.744;7.190;2023-08-21T08:16:02;2.37;;;0.57;;
27145;SDS011;17980;51.744;7.190;2023-08-21T08:18:39;1.90;;;0.43;;
27145;SDS011;17980;51.744;7.190;2023-08-21T08:21:07;1.67;;;0.53;;
27145;SDS011;17980;51.744;7.190;2023-08-21T08:23:35;3.87;;;0.60;;
27145;SDS011;17980;51.744;7.190;2023-08-21T08:26:02;3.57;;;0.60;;
27145;SDS011;17980;51.744;7.190;2023-08-21T08:28:39;2.43;;;0.50;;
27145;SDS011;17980;51.744;7.190;2023-08-21T08:31:06;5.27;;;0.70;;
27145;SDS011;17980;51.744;7.190;2023-08-21T08:33:35;2.30;;;0.50;;
27145;SDS011;17980;51.744;7.190;2023-08-21T08:36:03;1.97;;;0.50;;
27145;SDS011;17980;51.744;7.190;2023-08-21T08:38:40;2.43;;;0.40;;
27145;SDS011;17980;51.744;7.190;2023-08-21T08:41:10;2.77;;;0.60;;
27145;SDS011;17980;51.744;7.190;2023-08-21T08:43:40;2.93;;;0.60;;
27145;SDS011;17980;51.744;7.190;2023-08-21T08:46:08;4.40;;;0.50;;
27145;SDS011;17980;51.744;7.190;2023-08-21T08:48:45;2.13;;;0.60;;
27145;SDS011;17980;51.744;7.190;2023-08-21T08:51:12;7.97;;;0.67;;
27145;SDS011;17980;51.744;7.190;2023-08-21T08:53:40;4.53;;;0.50;;
27145;SDS011;17980;51.744;7.190;2023-08-21T08:56:08;3.63;;;0.90;;
27145;SDS011;17980;51.744;7.190;2023-08-21T08:58:45;1.80;;;0.63;;
27145;SDS011;17980;51.744;7.190;2023-08-21T09:01:13;2.83;;;0.53;;
27145;SDS011;17980;51.744;7.190;2023-08-21T09:03:41;2.03;;;0.43;;
27145;SDS011;17980;51.744;7.190;2023-08-21T09:08:53;2.80;;;0.60;;
27145;SDS011;17980;51.744;7.190;2023-08-21T09:11:21;4.40;;;0.50;;
27145;SDS011;17980;51.744;7.190;2023-08-21T09:13:50;2.17;;;0.50;;
27145;SDS011;17980;51.744;7.190;2023-08-21T09:16:19;2.85;;;0.60;;
27145;SDS011;17980;51.744;7.190;2023-08-21T09:18:57;2.70;;;0.62;;
27145;SDS011;17980;51.744;7.190;2023-08-21T09:21:24;1.85;;;0.50;;
27145;SDS011;17980;51.744;7.190;2023-08-21T09:23:57;2.98;;;0.40;;
27145;SDS011;17980;51.744;7.190;2023-08-21T09:26:27;2.02;;;0.60;;
27145;SDS011;17980;51.744;7.190;2023-08-21T09:29:04;4.70;;;0.80;;
27145;SDS011;17980;51.744;7.190;2023-08-21T09:31:32;1.47;;;0.50;;
27145;SDS011;17980;51.744;7.190;2023-08-21T09:34:00;4.75;;;1.00;;
27145;SDS011;17980;51.744;7.190;2023-08-21T09:36:30;2.72;;;0.45;;
27145;SDS011;17980;51.744;7.190;2023-08-21T09:39:08;3.60;;;0.70;;
27145;SDS011;17980;51.744;7.190;2023-08-21T09:41:46;2.87;;;0.50;;
27145;SDS011;17980;51.744;7.190;2023-08-21T09:44:21;2.03;;;0.60;;
27145;SDS011;17980;51.744;7.190;2023-08-21T09:46:48;5.20;;;0.80;;
27145;SDS011;17980;51.744;7.190;2023-08-21T09:49:26;2.03;;;0.60;;
27145;SDS011;17980;51.744;7.190;2023-08-21T09:51:54;2.57;;;0.50;;
27145;SDS011;17980;51.744;7.190;2023-08-21T09:54:32;2.50;;;0.60;;
27145;SDS011;17980;51.744;7.190;2023-08-21T09:57:01;3.45;;;0.60;;
27145;SDS011;17980;51.744;7.190;2023-08-21T09:59:38;5.50;;;0.80;;
27145;SDS011;17980;51.744;7.190;2023-08-21T10:02:08;4.13;;;0.50;;
27145;SDS011;17980;51.744;7.190;2023-08-21T10:04:36;3.30;;;0.80;;
27145;SDS011;17980;51.744;7.190;2023-08-21T10:07:08;2.27;;;0.70;;
27145;SDS011;17980;51.744;7.190;2023-08-21T10:09:45;3.60;;;0.90;;
27145;SDS011;17980;51.744;7.190;2023-08-21T10:12:13;2.17;;;0.50;;
27145;SDS011;17980;51.744;7.190;2023-08-21T10:14:42;4.07;;;0.47;;
27145;SDS011;17980;51.744;7.190;2023-08-21T10:17:10;1.67;;;0.40;;
27145;SDS011;17980;51.744;7.190;2023-08-21T10:19:51;4.27;;;0.80;;
27145;SDS011;17980;51.744;7.190;2023-08-21T10:22:36;4.83;;;0.73;;
27145;SDS011;17980;51.744;7.190;2023-08-21T10:25:13;4.10;;;0.67;;
27145;SDS011;17980;51.744;7.190;2023-08-21T10:27:42;2.13;;;0.50;;
27145;SDS011;17980;51.744;7.190;2023-08-21T10:30:22;2.57;;;0.40;;
27145;SDS011;17980;51.744;7.190;2023-08-21T10:32:51;4.47;;;0.63;;
27145;SDS011;17980;51.744;7.190;2023-08-21T10:35:20;2.77;;;0.50;;
27145;SDS011;17980;51.744;7.190;2023-08-21T10:38:08;3.13;;;0.93;;
27145;SDS011;17980;51.744;7.190;2023-08-21T10:40:36;2.97;;;0.50;;
27145;SDS011;17980;51.744;7.190;2023-08-21T10:46:06;3.40;;;0.60;;
27145;SDS011;17980;51.744;7.190;2023-08-21T10:48:43;3.63;;;0.70;;
27145;SDS011;17980;51.744;7.190;2023-08-21T10:51:10;2.20;;;0.60;;
27145;SDS011;17980;51.744;7.190;2023-08-21T10:53:39;1.97;;;0.50;;
27145;SDS011;17980;51.744;7.190;2023-08-21T10:56:08;2.23;;;0.60;;
27145;SDS011;17980;51.744;7.190;2023-08-21T10:58:45;2.87;;;0.70;;
27145;SDS011;17980;51.744;7.190;2023-08-21T11:01:13;3.00;;;0.77;;
27145;SDS011;17980;51.744;7.190;2023-08-21T11:03:41;5.03;;;0.57;;
27145;SDS011;17980;51.744;7.190;2023-08-21T11:06:12;4.17;;;1.00;;
27145;SDS011;17980;51.744;7.190;2023-08-21T11:08:49;4.57;;;0.80;;
27145;SDS011;17980;51.744;7.190;2023-08-21T11:11:17;3.40;;;0.57;;
27145;SDS011;17980;51.744;7.190;2023-08-21T11:13:52;4.60;;;0.90;;
27145;SDS011;17980;51.744;7.190;2023-08-21T11:16:20;7.87;;;0.70;;
27145;SDS011;17980;51.744;7.190;2023-08-21T11:18:58;6.23;;;0.70;;
27145;SDS011;17980;51.744;7.190;2023-08-21T11:21:30;2.23;;;0.57;;
27145;SDS011;17980;51.744;7.190;2023-08-21T11:23:58;6.20;;;0.67;;
27145;SDS011;17980;51.744;7.190;2023-08-21T11:26:25;2.90;;;0.50;;
27145;SDS011;17980;51.744;7.190;2023-08-21T11:29:02;2.50;;;0.50;;
27145;SDS011;17980;51.744;7.190;2023-08-21T11:31:30;2.27;;;0.50;;
27145;SDS011;17980;51.744;7.190;2023-08-21T11:33:58;2.63;;;0.80;;
27145;SDS011;17980;51.744;7.190;2023-08-21T11:36:25;2.87;;;0.73;;
27145;SDS011;17980;51.744;7.190;2023-08-21T11:39:03;6.53;;;0.60;;
27145;SDS011;17980;51.744;7.190;2023-08-21T11:44:07;4.73;;;0.80;;
27145;SDS011;17980;51.744;7.190;2023-08-21T11:46:35;5.83;;;1.37;;
27145;SDS011;17980;51.744;7.190;2023-08-21T11:49:12;3.33;;;0.60;;
27145;SDS011;17980;51.744;7.190;2023-08-21T11:51:41;9.87;;;0.80;;
27145;SDS011;17980;51.744;7.190;2023-08-21T11:54:08;5.70;;;0.80;;
27145;SDS011;17980;51.744;7.190;2023-08-21T11:56:36;4.07;;;0.60;;
27145;SDS011;17980;51.744;7.190;2023-08-21T11:59:21;6.10;;;0.80;;
27145;SDS011;17980;51.744;7.190;2023-08-21T12:01:50;4.37;;;0.63;;
27145;SDS011;17980;51.744;7.190;2023-08-21T12:04:18;8.30;;;0.60;;
27145;SDS011;17980;51.744;7.190;2023-08-21T12:06:45;3.47;;;0.60;;
27145;SDS011;17980;51.744;7.190;2023-08-21T12:09:22;3.30;;;0.73;;
27145;SDS011;17980;51.744;7.190;2023-08-21T12:11:49;3.37;;;0.50;;
27145;SDS011;17980;51.744;7.190;2023-08-21T12:14:17;3.77;;;0.63;;
27145;SDS011;17980;51.744;7.190;2023-08-21T12:16:44;5.33;;;0.50;;
27145;SDS011;17980;51.744;7.190;2023-08-21T12:19:22;3.87;;;0.70;;
27145;SDS011;17980;51.744;7.190;2023-08-21T12:24:27;4.97;;;0.80;;
27145;SDS011;17980;51.744;7.190;2023-08-21T12:26:55;4.77;;;0.70;;
27145;SDS011;17980;51.744;7.190;2023-08-21T12:29:32;3.97;;;0.70;;
27145;SDS011;17980;51.744;7.190;2023-08-21T12:32:00;2.37;;;0.60;;
27145;SDS011;17980;51.744;7.190;2023-08-21T12:34:31;2.73;;;0.63;;
27145;SDS011;17980;51.744;7.190;2023-08-21T12:36:58;3.23;;;0.70;;
27145;SDS011;17980;51.744;7.190;2023-08-21T12:39:35;3.37;;;0.60;;
27145;SDS011;17980;51.744;7.190;2023-08-21T12:44:42;3.33;;;0.53;;
27145;SDS011;17980;51.744;7.190;2023-08-21T12:47:09;3.83;;;0.77;;
27145;SDS011;17980;51.744;7.190;2023-08-21T12:49:46;7.23;;;0.90;;
27145;SDS011;17980;51.744;7.190;2023-08-21T12:52:14;2.53;;;0.50;;
27145;SDS011;17980;51.744;7.190;2023-08-21T12:54:41;3.43;;;0.70;;
27145;SDS011;17980;51.744;7.190;2023-08-21T12:57:09;2.67;;;0.60;;
27145;SDS011;17980;51.744;7.190;2023-08-21T12:59:46;5.50;;;0.80;;
27145;SDS011;17980;51.744;7.190;2023-08-21T13:02:13;6.93;;;0.90;;
27145;SDS011;17980;51.744;7.190;2023-08-21T13:04:40;6.33;;;0.70;;
27145;SDS011;17980;51.744;7.190;2023-08-21T13:07:08;4.40;;;0.60;;
27145;SDS011;17980;51.744;7.190;2023-08-21T13:09:46;5.47;;;0.63;;
27145;SDS011;17980;51.744;7.190;2023-08-21T13:12:14;3.20;;;0.50;;
27145;SDS011;17980;51.744;7.190;2023-08-21T13:14:56;2.87;;;0.70;;
27145;SDS011;17980;51.744;7.190;2023-08-21T13:17:24;3.33;;;0.90;;
27145;SDS011;17980;51.744;7.190;2023-08-21T13:20:01;2.43;;;0.50;;
27145;SDS011;17980;51.744;7.190;2023-08-21T13:22:29;3.53;;;0.70;;
27145;SDS011;17980;51.744;7.190;2023-08-21T13:25:10;3.07;;;0.77;;
27145;SDS011;17980;51.744;7.190;2023-08-21T13:27:38;3.93;;;0.80;;
27145;SDS011;17980;51.744;7.190;2023-08-21T13:30:15;4.73;;;1.33;;
27145;SDS011;17980;51.744;7.190;2023-08-21T13:32:43;2.03;;;0.70;;
27145;SDS011;17980;51.744;7.190;2023-08-21T13:35:11;3.77;;;0.83;;
27145;SDS011;17980;51.744;7.190;2023-08-21T13:37:39;4.67;;;0.80;;
27145;SDS011;17980;51.744;7.190;2023-08-21T13:40:16;2.40;;;0.60;;
27145;SDS011;17980;51.744;7.190;2023-08-21T13:42:44;4.87;;;0.60;;
27145;SDS011;17980;51.744;7.190;2023-08-21T13:45:13;4.27;;;0.73;;
27145;SDS011;17980;51.744;7.190;2023-08-21T13:47:42;2.80;;;0.70;;
27145;SDS011;17980;51.744;7.190;2023-08-21T13:50:19;2.70;;;0.60;;
27145;SDS011;17980;51.744;7.190;2023-08-21T13:52:47;3.10;;;0.70;;
27145;SDS011;17980;51.744;7.190;2023-08-21T13:55:14;5.10;;;0.80;;
27145;SDS011;17980;51.744;7.190;2023-08-21T13:57:42;4.53;;;0.60;;
27145;SDS011;17980;51.744;7.190;2023-08-21T14:00:23;4.33;;;0.60;;
27145;SDS011;17980;51.744;7.190;2023-08-21T14:02:50;2.70;;;0.70;;
27145;SDS011;17980;51.744;7.190;2023-08-21T14:05:17;2.40;;;0.80;;
27145;SDS011;17980;51.744;7.190;2023-08-21T14:07:45;2.03;;;0.63;;
27145;SDS011;17980;51.744;7.190;2023-08-21T14:10:22;3.80;;;0.73;;
27145;SDS011;17980;51.744;7.190;2023-08-21T14:12:51;6.40;;;1.03;;
27145;SDS011;17980;51.744;7.190;2023-08-21T14:15:19;5.83;;;1.10;;
27145;SDS011;17980;51.744;7.190;2023-08-21T14:17:47;3.60;;;0.90;;
27145;SDS011;17980;51.744;7.190;2023-08-21T14:20:24;2.43;;;0.70;;
27145;SDS011;17980;51.744;7.190;2023-08-21T14:22:52;3.53;;;0.70;;
27145;SDS011;17980;51.744;7.190;2023-08-21T14:25:19;5.77;;;0.97;;
27145;SDS011;17980;51.744;7.190;2023-08-21T14:27:47;3.70;;;0.80;;
27145;SDS011;17980;51.744;7.190;2023-08-21T14:30:25;4.10;;;1.00;;
27145;SDS011;17980;51.744;7.190;2023-08-21T14:32:53;3.07;;;1.03;;
27145;SDS011;17980;51.744;7.190;2023-08-21T14:35:20;3.90;;;1.13;;
27145;SDS011;17980;51.744;7.190;2023-08-21T14:40:24;3.33;;;1.20;;
27145;SDS011;17980;51.744;7.190;2023-08-21T14:42:51;3.00;;;1.37;;
27145;SDS011;17980;51.744;7.190;2023-08-21T14:45:19;2.67;;;1.00;;
27145;SDS011;17980;51.744;7.190;2023-08-21T14:47:47;5.70;;;1.10;;
27145;SDS011;17980;51.744;7.190;2023-08-21T14:50:24;2.57;;;0.90;;
27145;SDS011;17980;51.744;7.190;2023-08-21T14:52:52;2.17;;;0.90;;
27145;SDS011;17980;51.744;7.190;2023-08-21T14:55:29;4.03;;;1.20;;
27145;SDS011;17980;51.744;7.190;2023-08-21T14:57:56;5.90;;;0.93;;
27145;SDS011;17980;51.744;7.190;2023-08-21T15:00:33;5.30;;;0.90;;
27145;SDS011;17980;51.744;7.190;2023-08-21T15:03:00;4.73;;;0.90;;
27145;SDS011;17980;51.744;7.190;2023-08-21T15:05:28;3.73;;;0.80;;
27145;SDS011;17980;51.744;7.190;2023-08-21T15:10:32;1.60;;;0.70;;
27145;SDS011;17980;51.744;7.190;2023-08-21T15:12:59;4.90;;;0.90;;
27145;SDS011;17980;51.744;7.190;2023-08-21T15:18:03;4.20;;;0.97;;
27145;SDS011;17980;51.744;7.190;2023-08-21T15:20:30;4.73;;;0.70;;
27145;SDS011;17980;51.744;7.190;2023-08-21T15:23:07;3.33;;;0.77;;
27145;SDS011;17980;51.744;7.190;2023-08-21T15:25:35;2.77;;;0.87;;
27145;SDS011;17980;51.744;7.190;2023-08-21T15:28:13;3.93;;;1.10;;
27145;SDS011;17980;51.744;7.190;2023-08-21T15:30:40;2.40;;;0.80;;
27145;SDS011;17980;51.744;7.190;2023-08-21T15:33:17;2.47;;;0.60;;
27145;SDS011;17980;51.744;7.190;2023-08-21T15:35:45;2.23;;;0.90;;
27145;SDS011;17980;51.744;7.190;2023-08-21T15:38:12;1.80;;;0.80;;
27145;SDS011;17980;51.744;7.190;2023-08-21T15:40:49;4.33;;;0.90;;
27145;SDS011;17980;51.744;7.190;2023-08-21T15:43:26;4.63;;;0.70;;
27145;SDS011;17980;51.744;7.190;2023-08-21T15:45:53;1.60;;;0.60;;
27145;SDS011;17980;51.744;7.190;2023-08-21T15:48:21;2.27;;;0.80;;
27145;SDS011;17980;51.744;7.190;2023-08-21T15:50:58;5.97;;;1.00;;